Flight Track Log - Related Links

Times and Time Zones

All times are in EDT time to prevent confusion due to time zone crossing. See the UAL4108 flight status page for this flight to view local times or setup timezone preferences in your user account.


Time Position Orientation Groundspeed Altitude Reporting Facility
EDT Latitude Longitude Course Direction KTS MPH feet Rate Location/Type
Wed 07:10:31 AM 34.7156 -92.2494 193° South 174 200 700  Level Memphis Center
Wed 07:10:49 AM 34.7050 -92.2619 224° Southwest 188 216 1,500 2,658 Climbing Memphis Center
Wed 07:11:50 AM 34.6467 -92.2631 181° South 208 239 4,200 2,901 Climbing Memphis Center
Wed 07:12:20 AM 34.6217 -92.2600 174° South 200 230 5,900 2,533 Climbing Memphis Center
Wed 07:13:20 AM 34.5589 -92.2561 177° South 213 245 8,000 2,300 Climbing Memphis Center
Wed 07:14:00 AM 34.4298 -92.4333 190° South  Level Estimated
Wed 07:14:20 AM 34.4964 -92.2622 185° South 220 253 10,500  Level Memphis Center
Wed 07:15:00 AM 34.3549 -92.4852 193° South  Level Estimated
Wed 07:15:20 AM 34.4192 -92.2631 181° South 248 285 11,600  Level Memphis Center
Wed 07:16:20 AM 34.3314 -92.2661 182° South 287 330 12,700 1,300 Climbing Memphis Center
Wed 07:17:20 AM 34.2375 -92.2692 182° South 322 371 14,200 1,550 Climbing Memphis Center
Wed 07:18:20 AM 34.1433 -92.2794 185° South 338 389 15,800 1,550 Climbing Memphis Center
Wed 07:19:20 AM 34.0575 -92.3028 193° South 351 404 17,300 1,600 Climbing Memphis Center
Wed 07:20:20 AM 33.9611 -92.3206 189° South 351 404 19,000 1,650 Climbing Memphis Center
Wed 07:21:20 AM 33.8608 -92.3358 187° South 356 410 20,600 1,590 Climbing Memphis Center
Wed 07:21:43 AM 33.8267 -92.3431 190° South 340 391 21,200 1,301 Climbing Fort Worth Center
Wed 07:22:43 AM 33.7253 -92.3589 187° South 346 398 22,400 1,100 Climbing Fort Worth Center
Wed 07:23:43 AM 33.6197 -92.3800 189° South 365 420 23,400 1,000 Climbing Fort Worth Center
Wed 07:24:43 AM 33.5139 -92.3986 188° South 384 442 24,400 1,050 Climbing Fort Worth Center
Wed 07:25:43 AM 33.4064 -92.4194 189° South 391 450 25,500 1,050 Climbing Fort Worth Center
Wed 07:26:43 AM 33.2964 -92.4383 188° South 391 450 26,500 1,000 Climbing Fort Worth Center
Wed 07:27:43 AM 33.1886 -92.4567 188° South 396 456 27,500 750 Climbing Fort Worth Center
Wed 07:28:43 AM 33.0789 -92.4778 189° South 402 463 28,000 250 Climbing Fort Worth Center
Wed 07:29:43 AM 32.9567 -92.4992 188° South 407 468 28,000  Level Fort Worth Center
Wed 07:31:14 AM 32.7708 -92.5339 189° South 430 495 28,000  Level Houston Center
Wed 07:32:15 AM 32.6511 -92.5556 189° South 433 498 28,000  Level Houston Center
Wed 07:33:16 AM 32.5492 -92.5750 189° South 434 499 28,000  Level Houston Center
Wed 07:34:17 AM 32.4289 -92.5961 188° South 436 502 28,000  Level Houston Center
Wed 07:35:18 AM 32.2847 -92.6214 188° South 436 502 28,000  Level Houston Center
Wed 07:36:20 AM 32.1656 -92.6442 189° South 435 501 28,000  Level Houston Center
Wed 07:37:21 AM 32.0450 -92.6644 188° South 438 504 28,000  Level Houston Center
Wed 07:38:22 AM 31.9358 -92.7136 201° Southwest 429 494 28,000  Level Houston Center
Wed 07:39:23 AM 31.8439 -92.8033 220° Southwest 429 494 28,000  Level Houston Center
Wed 07:40:24 AM 31.7522 -92.8911 219° Southwest 426 490 28,000  Level Houston Center
Wed 07:41:25 AM 31.6608 -92.9803 220° Southwest 427 491 28,000  Level Houston Center
Wed 07:42:26 AM 31.5683 -93.0672 219° Southwest 428 493 28,000  Level Houston Center
Wed 07:43:27 AM 31.4764 -93.1561 220° Southwest 429 494 28,000  Level Houston Center
Wed 07:44:28 AM 31.3842 -93.2439 219° Southwest 428 493 28,000  Level Houston Center
Wed 07:45:30 AM 31.2831 -93.3411 219° Southwest 429 494 28,000  Level Houston Center
Wed 07:46:31 AM 31.1828 -93.4369 219° Southwest 428 493 28,000  Level Houston Center
Wed 07:47:32 AM 31.0914 -93.5239 219° Southwest 425 489 28,000  Level Houston Center
Wed 07:48:33 AM 30.9994 -93.6100 219° Southwest 427 491 28,000  Level Houston Center
Wed 07:49:34 AM 30.9083 -93.6981 220° Southwest 428 493 28,000 -590 Level Houston Center
Wed 07:50:35 AM 30.8164 -93.7842 219° Southwest 428 493 26,800 -1,659 Descending Houston Center
Wed 07:51:37 AM 30.7217 -93.8739 219° Southwest 439 505 24,600 -2,244 Descending Houston Center
Wed 07:52:38 AM 30.6300 -93.9606 219° Southwest 433 498 22,200 -2,311 Descending Houston Center
Wed 07:53:39 AM 30.5419 -94.0433 219° Southwest 424 488 19,900 -2,459 Descending Houston Center
Wed 07:54:40 AM 30.4414 -94.1381 219° Southwest 402 463 17,200 -2,423 Descending Houston Center
Wed 07:55:23 AM 30.3808 -94.1925 218° Southwest 378 435 15,700 -2,164 Descending Houston Center
Wed 07:55:41 AM 30.3597 -94.2131 220° Southwest 384 442 15,000 -2,219 Descending Houston Center
Wed 07:56:36 AM 30.2847 -94.2828 219° Southwest 356 410 13,000 -1,794 Descending Houston Center
Wed 07:57:18 AM 30.2347 -94.3283 218° Southwest 340 391 12,100 -882 Descending Houston Center
Wed 07:57:44 AM 30.2092 -94.3542 221° Southwest 349 402 12,000 -590 Descending Houston Center
Wed 07:58:19 AM 30.1875 -94.4264 251° West 360 414 11,500 -787 Descending Houston Center
Wed 07:58:45 AM 30.1825 -94.4581 260° West 353 406 11,200 -984 Descending Houston Center
Wed 07:59:20 AM 30.1669 -94.5378 257° West 355 409 10,500 -885 Descending Houston Center
Wed 07:59:46 AM 30.1639 -94.5725 264° West 356 410 10,300 -492 Descending Houston Center
Wed 08:00:21 AM 30.1503 -94.6464 258° West 337 388 10,000 -290 Descending Houston Center
Wed 08:00:48 AM 30.1456 -94.6761 260° West 336 387 10,000 -532 Level Houston Center
Wed 08:01:40 AM 30.1297 -94.7603 258° West 259 298 9,300 -1,074 Descending Houston Center
Wed 08:02:23 AM 30.1186 -94.8197 258° West 257 296 8,300 -1,114 Descending Houston Center
Wed 08:02:50 AM 30.1164 -94.8431 264° West 262 302 8,000 -1,397 Descending Houston Center
Wed 08:03:36 AM 30.1053 -94.9228 261° West 278 320 6,600 -1,645 Descending Houston Center
Wed 08:03:52 AM 30.1039 -94.9478 266° West 275 316 6,300 -545 Descending Houston Center
Wed 08:04:42 AM 30.1064 -95.0242 272° West 263 303 6,000 -170 Descending Houston Center
Wed 08:05:38 AM 30.1050 -95.0992 269° West 265 305 6,000 83 Level Houston Center
Wed 08:05:54 AM 30.1064 -95.1178 275° West 265 305 6,100  Climbing Houston Center
Wed 08:06:44 AM 30.1056 -95.1958 269° West 269 310 6,000 -61 Descending Houston Center
Wed 08:07:33 AM 30.1061 -95.2681 271° West 268 308 6,000 82 Level Houston Center
Wed 08:07:57 AM 30.1069 -95.2894 273° West 269 310 6,100  Climbing Houston Center
Wed 08:08:29 AM 30.1069 -95.3478 270° West 270 311 6,000  Descending Houston Center
Wed 08:08:58 AM 30.1078 -95.3750 272° West 268 308 6,100  Climbing Houston Center
Wed 08:09:35 AM 30.1067 -95.4372 269° West 231 266 6,000 -97 Descending Houston Center
Wed 08:10:00 AM 30.1078 -95.4542 274° West 255 293 6,000 -484 Level Houston Center
Wed 08:10:37 AM 30.1072 -95.5119 269° West 230 265 5,500 -787 Descending Houston Center
Wed 08:11:01 AM 30.1081 -95.5269 274° West 235 270 5,200 -1,279 Descending Houston Center
Wed 08:11:38 AM 30.1056 -95.5869 267° West 228 262 4,200 -1,180 Descending Houston Center
Wed 08:12:02 AM 30.0933 -95.6044 231° Southwest 221 254 4,000 -689 Descending Houston Center
Wed 08:12:39 AM 30.0592 -95.6094 187° South 185 213 3,500 -871 Descending Houston Center
Wed 08:13:04 AM 30.0414 -95.6111 185° South 195 224 3,100 -492 Descending Houston Center
Wed 08:13:40 AM 30.0119 -95.5981 159° South 191 220 3,000 -98 Descending Houston Center
Wed 08:14:05 AM 30.0042 -95.5769 113° Southeast 199 229 3,000  Level Houston Center
Wed 08:14:41 AM 29.9942 -95.5397 107° East 183 211 3,000 -194 Level Houston Center
Wed 08:15:07 AM 29.9922 -95.5208 97° East 189 217 2,800 -689 Descending Houston Center
Wed 08:15:42 AM 29.9933 -95.4819 88° East 182 209 2,300 -787 Descending Houston Center
Wed 08:16:08 AM 29.9931 -95.4636 91° East 181 208 2,000 -982 Descending Houston Center
Wed 08:16:37 AM 29.9933 -95.4361 89° East 141 162 1,400 -1,241 Descending Houston Center

Login

Don't have an account? Register now (free) for customized features, flight alerts, and more!